Time;durP1;ratioP1;P1;durP2;ratioP2;P2;SDS_P1;SDS_P2;PMS_P1;PMS_P2;Temp;Humidity;BMP_temperature;BMP_pressure;BME280_temperature;BME280_humidity;BME280_pressure;Samples;Min_cycle;Max_cycle;Signal;HPM_P1;HPM_P2
2021/01/12 00:01:43;;;;;;;40.97;23.17;;;4.90;95.60;;;;;;6277439;22;20050;-81
2021/01/12 00:04:09;;;;;;;40.37;21.87;;;5.00;95.80;;;;;;6277596;22;20330;-81
2021/01/12 00:06:35;;;;;;;42.17;23.20;;;5.00;95.60;;;;;;6277284;22;20095;-81
2021/01/12 00:09:01;;;;;;;44.90;22.73;;;5.10;95.60;;;;;;6276935;22;20075;-81
2021/01/12 00:11:27;;;;;;;38.57;21.90;;;5.00;95.60;;;;;;6275663;22;20031;-81
2021/01/12 00:13:52;;;;;;;38.80;22.53;;;5.10;95.60;;;;;;6275844;22;20386;-81
2021/01/12 00:16:20;;;;;;;40.53;22.07;;;5.10;95.60;;;;;;6277004;22;20067;-81
2021/01/12 00:18:46;;;;;;;42.70;22.03;;;5.10;95.50;;;;;;6249889;22;20446;-82
2021/01/12 00:21:12;;;;;;;39.73;21.63;;;5.10;95.60;;;;;;6276761;22;20003;-81
2021/01/12 00:23:38;;;;;;;40.53;21.40;;;5.10;95.70;;;;;;6249964;22;20007;-81
2021/01/12 00:26:08;;;;;;;31.63;20.13;;;5.10;95.70;;;;;;6277246;22;20014;-81
2021/01/12 00:28:34;;;;;;;;;;;5.10;95.70;;;;;;6250585;22;20014;-81
2021/01/12 00:31:05;;;;;;;35.60;19.20;;;5.10;95.80;;;;;;6248944;22;19907;-81
2021/01/12 00:33:32;;;;;;;29.97;18.27;;;5.10;95.80;;;;;;6277437;22;20083;-81
2021/01/12 00:36:04;;;;;;;32.60;18.73;;;5.10;96.10;;;;;;6250123;22;20004;-82
2021/01/12 00:38:29;;;;;;;31.33;17.30;;;5.10;95.80;;;;;;6277134;22;20003;-81
2021/01/12 00:40:55;;;;;;;32.50;17.97;;;5.10;95.70;;;;;;6274568;22;20007;-81
2021/01/12 00:43:24;;;;;;;29.60;17.37;;;5.20;95.60;;;;;;6276419;22;20529;-81
2021/01/12 00:45:49;;;;;;;31.73;18.15;;;5.20;95.60;;;;;;6276994;22;20065;-81
2021/01/12 00:48:15;;;;;;;33.77;17.10;;;5.10;95.60;;;;;;6249904;22;20007;-82
2021/01/12 00:50:40;;;;;;;34.17;18.63;;;5.20;95.70;;;;;;6276174;22;20004;-81
2021/01/12 00:53:06;;;;;;;31.03;17.00;;;5.20;95.70;;;;;;6276803;22;20023;-81
2021/01/12 00:55:32;;;;;;;30.93;16.47;;;5.20;95.60;;;;;;6276844;22;19999;-81
2021/01/12 00:57:58;;;;;;;26.70;16.63;;;5.20;95.50;;;;;;6275235;22;20004;-81
2021/01/12 01:00:24;;;;;;;30.60;16.77;;;5.20;95.60;;;;;;6274527;22;20087;-81
2021/01/12 01:02:50;;;;;;;25.57;16.70;;;5.20;95.50;;;;;;6276461;22;20023;-82
2021/01/12 01:05:15;;;;;;;25.67;15.67;;;5.30;95.40;;;;;;6276850;22;20016;-81
2021/01/12 01:07:41;;;;;;;26.53;15.47;;;5.20;95.50;;;;;;6276971;22;20030;-81
2021/01/12 01:10:07;;;;;;;26.87;15.53;;;5.20;95.50;;;;;;6276524;22;20456;-81
2021/01/12 01:12:33;;;;;;;26.37;15.60;;;5.30;95.50;;;;;;6249585;22;20461;-82
2021/01/12 01:14:58;;;;;;;25.10;15.73;;;5.30;95.60;;;;;;6276597;22;20035;-82
2021/01/12 01:17:24;;;;;;;29.00;16.10;;;5.30;95.60;;;;;;6276395;22;20004;-82
2021/01/12 01:19:49;;;;;;;32.10;16.80;;;5.30;95.70;;;;;;6274194;22;20007;-81
2021/01/12 01:22:15;;;;;;;29.07;16.13;;;5.30;95.80;;;;;;6274956;22;20012;-82
2021/01/12 01:24:41;;;;;;;27.30;15.77;;;5.30;95.80;;;;;;6275150;22;20000;-81
2021/01/12 01:27:06;;;;;;;28.90;15.87;;;5.30;96.00;;;;;;6249479;22;20319;-82
2021/01/12 01:29:32;;;;;;;30.10;16.00;;;5.30;96.00;;;;;;6276096;22;20035;-82
2021/01/12 01:31:57;;;;;;;28.07;16.77;;;5.20;96.00;;;;;;6276949;22;20441;-82
2021/01/12 01:34:23;;;;;;;32.53;16.70;;;5.30;96.10;;;;;;6276843;22;20004;-81
2021/01/12 01:36:48;;;;;;;32.33;17.73;;;5.30;96.10;;;;;;6276440;22;20004;-81
2021/01/12 01:39:14;;;;;;;31.83;17.57;;;5.30;96.20;;;;;;6275568;22;20006;-81
2021/01/12 01:41:40;;;;;;;28.60;16.60;;;5.30;96.20;;;;;;6276113;22;20004;-81
2021/01/12 01:44:06;;;;;;;28.10;15.60;;;5.30;96.10;;;;;;6276271;22;20012;-81
2021/01/12 01:46:32;;;;;;;26.37;15.40;;;5.30;96.10;;;;;;6276139;22;20003;-82
2021/01/12 01:48:58;;;;;;;27.63;16.70;;;5.30;96.20;;;;;;6276329;22;20003;-82
2021/01/12 01:51:25;;;;;;;31.60;17.33;;;5.30;96.20;;;;;;6276266;22;20004;-82
2021/01/12 01:53:51;;;;;;;30.13;16.30;;;5.30;96.20;;;;;;6274505;22;20391;-81
2021/01/12 01:56:17;;;;;;;27.93;15.63;;;5.30;96.20;;;;;;6276064;22;19995;-82
2021/01/12 01:58:43;;;;;;;24.87;14.47;;;5.30;96.30;;;;;;6274878;22;20007;-81
2021/01/12 02:01:09;;;;;;;25.33;13.60;;;5.30;96.20;;;;;;6276145;22;20327;-82
2021/01/12 02:04:04;;;;;;;23.10;14.30;;;5.40;96.20;;;;;;6276741;22;20459;-82
2021/01/12 02:06:34;;;;;;;23.27;13.03;;;5.30;96.20;;;;;;6276437;22;20334;-81
2021/01/12 02:08:59;;;;;;;21.38;13.27;;;5.30;96.30;;;;;;6275507;22;20057;-81
2021/01/12 02:11:27;;;;;;;23.77;13.50;;;5.30;96.40;;;;;;6274796;22;20346;-81
2021/01/12 02:14:00;;;;;;;28.13;14.67;;;5.30;96.40;;;;;;6276665;22;20007;-81
2021/01/12 02:16:28;;;;;;;28.07;14.33;;;5.30;96.40;;;;;;6249945;22;20007;-82
2021/01/12 02:18:57;;;;;;;25.00;14.87;;;5.30;96.40;;;;;;6276087;22;20000;-82
2021/01/12 02:21:22;;;;;;;28.47;15.10;;;5.30;96.40;;;;;;6249845;22;19999;-81
2021/01/12 02:23:56;;;;;;;23.53;13.83;;;5.30;96.40;;;;;;6275054;22;20008;-82
2021/01/12 02:26:22;;;;;;;26.97;15.53;;;5.30;96.40;;;;;;6249432;22;20008;-82
2021/01/12 02:28:48;;;;;;;29.13;15.77;;;5.30;96.50;;;;;;6276092;22;20038;-81
2021/01/12 02:31:16;;;;;;;30.87;17.17;;;5.40;96.60;;;;;;6249189;22;20012;-82
2021/01/12 02:33:43;;;;;;;32.33;18.93;;;5.40;96.80;;;;;;6276709;22;20441;-81
2021/01/12 02:36:13;;;;;;;33.70;18.57;;;5.40;96.60;;;;;;6276605;22;20086;-81
2021/01/12 02:38:38;;;;;;;32.72;17.38;;;5.40;96.60;;;;;;6276104;22;20000;-81
2021/01/12 02:41:14;;;;;;;26.20;16.57;;;5.40;96.70;;;;;;6276381;22;20038;-81
2021/01/12 02:43:42;;;;;;;29.90;17.23;;;5.40;96.70;;;;;;6276343;22;19999;-81
2021/01/12 02:46:08;;;;;;;35.97;18.50;;;5.30;97.00;;;;;;6249044;22;20007;-82
2021/01/12 02:48:34;;;;;;;29.13;16.80;;;5.40;96.80;;;;;;6276362;22;19996;-81
2021/01/12 02:51:00;;;;;;;29.70;16.40;;;5.40;96.70;;;;;;6275978;22;20010;-82
2021/01/12 02:53:25;;;;;;;27.77;15.93;;;5.40;96.70;;;;;;6276278;22;20090;-81
2021/01/12 02:55:51;;;;;;;29.90;15.70;;;5.40;96.70;;;;;;6276932;22;20002;-81
2021/01/12 02:58:16;;;;;;;29.80;16.97;;;5.40;96.60;;;;;;6276833;22;20000;-82
2021/01/12 03:00:42;;;;;;;33.73;16.77;;;5.40;96.70;;;;;;6274039;22;19999;-81
2021/01/12 03:03:08;;;;;;;29.10;15.47;;;5.40;96.70;;;;;;6276909;22;19999;-82
2021/01/12 03:05:33;;;;;;;27.80;14.73;;;5.40;96.70;;;;;;6276812;22;20000;-82
2021/01/12 03:07:59;;;;;;;25.63;14.50;;;5.40;96.70;;;;;;6276149;22;19996;-81
2021/01/12 03:10:25;;;;;;;25.60;14.20;;;5.40;96.70;;;;;;6275434;22;20516;-81
2021/01/12 03:12:50;;;;;;;27.10;14.83;;;5.50;96.70;;;;;;6275583;22;20434;-81
2021/01/12 03:15:16;;;;;;;29.13;14.13;;;5.50;96.60;;;;;;6275513;22;20010;-82
2021/01/12 03:17:41;;;;;;;23.80;13.07;;;5.50;96.50;;;;;;6275683;22;20047;-81
2021/01/12 03:20:08;;;;;;;27.07;13.50;;;5.50;96.60;;;;;;6274628;22;20046;-81
2021/01/12 03:22:33;;;;;;;19.83;11.90;;;5.50;96.60;;;;;;6248233;22;20078;-82
2021/01/12 03:24:59;;;;;;;23.33;11.30;;;5.50;96.60;;;;;;6273613;22;20062;-81
2021/01/12 03:27:24;;;;;;;23.20;11.63;;;5.50;96.60;;;;;;6275772;22;20003;-81
2021/01/12 03:29:50;;;;;;;16.97;10.60;;;5.60;96.70;;;;;;6273340;22;20008;-81
2021/01/12 03:32:15;;;;;;;18.30;10.77;;;5.60;96.60;;;;;;6274003;22;20059;-81
2021/01/12 03:34:41;;;;;;;17.07;9.93;;;5.50;96.60;;;;;;6275259;22;19999;-82
2021/01/12 03:37:06;;;;;;;13.57;8.63;;;5.60;96.60;;;;;;6275380;22;20331;-81
2021/01/12 03:39:32;;;;;;;23.37;10.13;;;5.60;96.60;;;;;;6274472;22;20003;-81
2021/01/12 03:41:58;;;;;;;18.00;9.93;;;5.60;96.70;;;;;;6275389;22;20415;-81
2021/01/12 03:44:23;;;;;;;16.40;9.40;;;5.60;96.70;;;;;;6275492;22;20012;-81
2021/01/12 03:46:49;;;;;;;13.73;8.73;;;5.60;96.70;;;;;;6248412;22;20058;-82
2021/01/12 03:49:14;;;;;;;12.83;8.30;;;5.60;96.70;;;;;;6274743;22;20379;-81
2021/01/12 03:51:40;;;;;;;12.10;7.97;;;5.60;96.80;;;;;;6275373;22;20083;-81
2021/01/12 03:54:05;;;;;;;11.53;7.50;;;5.60;96.80;;;;;;6248278;22;20076;-81
2021/01/12 03:56:31;;;;;;;12.10;7.77;;;5.60;96.80;;;;;;6248376;22;20011;-81
2021/01/12 03:58:57;;;;;;;12.63;8.00;;;5.60;96.90;;;;;;6247726;22;20004;-81
2021/01/12 04:01:22;;;;;;;13.40;8.70;;;5.60;96.90;;;;;;6275008;22;20078;-81
2021/01/12 04:03:48;;;;;;;11.87;7.80;;;5.60;96.90;;;;;;6275688;22;20354;-82
2021/01/12 04:06:15;;;;;;;10.60;7.20;;;5.60;97.00;;;;;;6275629;22;19999;-81
2021/01/12 04:08:43;;;;;;;11.43;7.67;;;5.60;97.00;;;;;;6275660;22;20078;-81
2021/01/12 04:11:09;;;;;;;11.60;6.90;;;5.60;97.10;;;;;;6275073;22;20493;-82
2021/01/12 04:13:35;;;;;;;11.30;7.47;;;5.60;97.10;;;;;;6249983;22;20003;-82
2021/01/12 04:16:02;;;;;;;11.73;7.23;;;5.60;97.20;;;;;;6250742;22;20006;-82
2021/01/12 04:18:27;;;;;;;11.87;7.10;;;5.70;97.20;;;;;;6251928;22;20099;-82
2021/01/12 04:20:53;;;;;;;12.67;7.00;;;5.60;97.30;;;;;;6278747;22;20004;-82
2021/01/12 04:23:19;;;;;;;11.07;6.57;;;5.60;97.30;;;;;;6279513;22;20008;-81
2021/01/12 04:25:44;;;;;;;11.43;6.57;;;5.70;97.30;;;;;;6279607;22;20389;-82
2021/01/12 04:28:10;;;;;;;11.17;6.77;;;5.70;97.30;;;;;;6279950;22;20007;-83
2021/01/12 04:30:36;;;;;;;10.87;7.00;;;5.70;97.50;;;;;;6252054;22;20027;-82
2021/01/12 04:33:01;;;;;;;10.10;6.70;;;5.70;97.60;;;;;;6279664;22;20000;-82
2021/01/12 04:35:28;;;;;;;13.20;7.37;;;5.70;97.50;;;;;;6279932;22;19999;-82
2021/01/12 04:37:54;;;;;;;12.07;6.90;;;5.70;97.50;;;;;;6279580;22;20006;-82
2021/01/12 04:40:20;;;;;;;12.67;6.90;;;5.70;97.60;;;;;;6251807;22;20004;-82
2021/01/12 04:42:46;;;;;;;11.83;6.47;;;5.80;97.60;;;;;;6279857;22;20026;-82
2021/01/12 04:45:12;;;;;;;9.50;6.10;;;5.80;97.60;;;;;;6252317;22;20099;-82
2021/01/12 04:47:37;;;;;;;9.80;6.20;;;5.80;97.60;;;;;;6280102;22;20003;-82
2021/01/12 04:50:04;;;;;;;9.67;6.30;;;5.80;97.60;;;;;;6277970;22;20323;-81
2021/01/12 04:52:30;;;;;;;8.93;6.10;;;5.80;97.50;;;;;;6249444;22;19999;-81
2021/01/12 04:55:01;;;;;;;9.80;5.90;;;5.80;97.50;;;;;;6276568;22;20133;-81
2021/01/12 04:57:27;;;;;;;10.17;6.40;;;5.80;97.60;;;;;;6276534;22;20070;-81
2021/01/12 04:59:53;;;;;;;10.17;6.30;;;5.90;97.70;;;;;;6275782;22;20004;-81
2021/01/12 05:02:19;;;;;;;10.50;6.80;;;5.90;97.60;;;;;;6276644;22;20008;-81
2021/01/12 05:04:45;;;;;;;11.60;6.83;;;5.90;97.70;;;;;;6276498;22;19999;-81
2021/01/12 05:07:10;;;;;;;9.97;6.37;;;5.90;97.90;;;;;;6276605;22;20000;-81
2021/01/12 05:09:38;;;;;;;14.03;7.40;;;5.90;97.70;;;;;;6275580;22;20358;-81
2021/01/12 05:12:05;;;;;;;12.63;7.53;;;5.90;97.80;;;;;;6249202;22;20003;-81
2021/01/12 05:14:33;;;;;;;12.90;7.47;;;5.90;97.60;;;;;;6276735;22;20079;-81
2021/01/12 05:16:59;;;;;;;11.63;7.70;;;6.00;97.70;;;;;;6276629;22;20000;-81
2021/01/12 05:19:28;;;;;;;14.80;7.37;;;6.00;97.80;;;;;;6275717;22;19996;-81
2021/01/12 05:21:59;;;;;;;14.02;7.95;;;6.00;97.70;;;;;;6276132;22;20393;-82
2021/01/12 05:24:25;;;;;;;13.13;7.83;;;6.00;97.70;;;;;;6276490;22;20339;-81
2021/01/12 05:26:51;;;;;;;12.83;6.73;;;6.00;97.70;;;;;;6276440;22;19999;-81
2021/01/12 05:29:17;;;;;;;11.27;6.53;;;6.00;97.80;;;;;;6248694;22;20011;-81
2021/01/12 05:31:47;;;;;;;9.27;5.17;;;6.00;97.70;;;;;;6277080;22;20071;-81
2021/01/12 05:34:16;;;;;;;8.10;5.60;;;6.10;97.70;;;;;;6249419;22;20003;-81
2021/01/12 05:36:51;;;;;;;;;;;6.10;97.80;;;;;;6277100;22;20023;-82
2021/01/12 05:39:21;;;;;;;7.73;5.20;;;6.10;97.80;;;;;;6275950;22;20368;-81
2021/01/12 05:41:47;;;;;;;;;;;6.10;97.70;;;;;;6249600;22;20004;-81
2021/01/12 05:44:23;;;;;;;8.50;4.90;;;6.10;97.70;;;;;;6276538;22;19899;-81
2021/01/12 05:46:52;;;;;;;7.33;4.80;;;6.10;97.80;;;;;;6249722;22;20438;-81
2021/01/12 05:49:22;;;;;;;8.10;5.10;;;6.10;97.70;;;;;;6275896;22;20029;-81
2021/01/12 05:51:50;;;;;;;7.53;4.10;;;6.10;97.60;;;;;;6276561;22;20503;-81
2021/01/12 05:54:30;;;;;;;8.07;4.33;;;6.10;97.70;;;;;;6276737;22;20007;-81
2021/01/12 05:57:04;;;;;;;7.07;4.33;;;6.10;97.70;;;;;;6276950;22;20075;-81
2021/01/12 05:59:36;;;;;;;14.13;4.00;;;6.10;97.80;;;;;;6276309;22;19999;-81
2021/01/12 06:02:10;;;;;;;7.53;3.60;;;6.10;97.80;;;;;;6277730;22;20330;-81
2021/01/12 06:04:36;;;;;;;5.37;3.20;;;6.20;97.80;;;;;;6277271;22;20008;-81
2021/01/12 06:07:03;;;;;;;5.47;3.73;;;6.20;97.80;;;;;;6250507;22;20442;-82
2021/01/12 06:09:29;;;;;;;5.60;3.67;;;6.20;97.70;;;;;;6276327;22;20014;-81
2021/01/12 06:11:57;;;;;;;6.73;3.67;;;6.20;97.70;;;;;;6250294;22;20007;-82
2021/01/12 06:14:28;;;;;;;5.53;3.50;;;6.20;97.70;;;;;;6276189;22;20335;-81
2021/01/12 06:16:54;;;;;;;4.87;3.50;;;6.20;97.80;;;;;;6248810;22;19996;-81
2021/01/12 06:19:22;;;;;;;5.70;3.80;;;6.20;98.10;;;;;;6248285;22;20004;-81
2021/01/12 06:21:56;;;;;;;6.33;4.00;;;6.20;97.90;;;;;;6276186;22;20361;-81
2021/01/12 06:24:33;;;;;;;7.00;3.87;;;6.20;97.90;;;;;;6248959;22;20358;-81
2021/01/12 06:26:59;;;;;;;7.30;3.70;;;6.20;97.90;;;;;;6249210;22;20007;-82
2021/01/12 06:29:29;;;;;;;5.73;3.97;;;6.20;97.90;;;;;;6275537;22;20339;-82
2021/01/12 06:31:57;;;;;;;7.77;4.40;;;6.30;98.10;;;;;;6276434;22;20515;-81
2021/01/12 06:34:23;;;;;;;7.13;4.10;;;6.20;98.30;;;;;;6249984;22;20004;-82
2021/01/12 06:36:56;;;;;;;5.23;3.73;;;6.30;98.00;;;;;;6278935;22;20000;-83
2021/01/12 06:39:29;;;;;;;6.67;3.73;;;6.30;98.00;;;;;;6278220;22;19999;-82
2021/01/12 06:41:54;;;;;;;5.77;3.40;;;6.40;97.90;;;;;;6277409;22;20003;-82
2021/01/12 06:44:23;;;;;;;6.23;3.70;;;6.30;97.80;;;;;;6250801;22;20465;-82
2021/01/12 06:46:51;;;;;;;4.97;3.30;;;6.40;97.90;;;;;;6277552;22;20417;-82
2021/01/12 06:49:22;;;;;;;4.80;3.23;;;6.40;98.10;;;;;;6276228;22;20003;-81
2021/01/12 06:52:12;;;;;;;7.00;3.83;;;6.40;97.90;;;;;;6276408;22;20004;-81
2021/01/12 06:54:38;;;;;;;6.40;3.92;;;6.30;98.00;;;;;;6276571;22;20423;-81
2021/01/12 06:57:06;;;;;;;6.70;3.90;;;6.40;98.00;;;;;;6276754;22;20535;-82
2021/01/12 06:59:39;;;;;;;7.67;3.80;;;6.40;98.00;;;;;;6275974;22;20000;-82
2021/01/12 07:02:06;;;;;;;5.33;3.30;;;6.30;98.00;;;;;;6249186;22;20445;-81
2021/01/12 07:04:32;;;;;;;4.40;2.73;;;6.30;98.00;;;;;;6276315;22;20049;-82
2021/01/12 07:06:59;;;;;;;6.97;3.10;;;6.30;98.10;;;;;;6276733;22;20008;-81
2021/01/12 07:09:26;;;;;;;5.97;3.97;;;6.30;98.10;;;;;;6276039;22;20000;-81
2021/01/12 07:12:12;;;;;;;6.90;4.33;;;6.40;98.20;;;;;;6249596;22;20342;-81
2021/01/12 07:14:51;;;;;;;7.40;3.77;;;6.40;98.20;;;;;;6276108;22;20000;-81
2021/01/12 07:17:32;;;;;;;5.40;3.28;;;6.40;98.00;;;;;;6277876;22;20327;-81
2021/01/12 07:20:21;;;;;;;6.50;3.80;;;6.40;98.20;;;;;;6249639;22;20010;-82
2021/01/12 07:22:54;;;;;;;6.07;4.22;;;6.40;98.20;;;;;;6257106;22;20430;-82
2021/01/12 07:25:34;;;;;;;8.63;4.73;;;6.40;98.30;;;;;;6248987;22;20086;-81
2021/01/12 07:28:17;;;;;;;7.10;3.83;;;6.40;98.40;;;;;;6251041;22;20014;-81
2021/01/12 07:30:48;;;;;;;6.07;4.23;;;6.40;98.30;;;;;;6248553;22;20470;-82
2021/01/12 07:33:16;;;;;;;7.53;4.13;;;6.40;98.40;;;;;;6250389;22;20434;-82
2021/01/12 07:35:47;;;;;;;6.93;3.90;;;6.50;98.40;;;;;;6249565;22;20078;-82
2021/01/12 07:38:16;;;;;;;6.43;4.13;;;6.40;98.30;;;;;;6277362;22;20223;-81
2021/01/12 07:40:42;;;;;;;8.57;4.27;;;6.40;98.40;;;;;;6276892;22;19996;-81
2021/01/12 07:43:14;;;;;;;6.43;4.83;;;6.40;98.30;;;;;;6249981;22;20338;-81
2021/01/12 07:45:40;;;;;;;8.20;4.80;;;6.50;98.60;;;;;;6277775;22;19996;-82
2021/01/12 07:48:06;;;;;;;8.73;5.07;;;6.50;98.50;;;;;;6277588;22;19999;-81
2021/01/12 07:50:32;;;;;;;10.90;6.63;;;6.50;98.50;;;;;;6249134;22;20019;-81
2021/01/12 07:52:58;;;;;;;13.60;7.63;;;6.50;98.50;;;;;;6250712;22;20004;-82
2021/01/12 07:55:24;;;;;;;8.43;5.20;;;6.50;98.60;;;;;;6280601;22;20026;-81
2021/01/12 07:57:51;;;;;;;9.00;6.03;;;6.50;98.50;;;;;;6278760;22;19999;-81
2021/01/12 08:00:18;;;;;;;10.07;6.43;;;6.60;98.60;;;;;;6278646;22;19999;-82
2021/01/12 08:02:48;;;;;;;10.47;6.67;;;6.60;98.60;;;;;;6251567;22;20000;-81
2021/01/12 08:05:25;;;;;;;9.53;6.03;;;6.50;98.60;;;;;;6251555;22;20003;-81
2021/01/12 08:08:11;;;;;;;9.37;5.97;;;6.60;98.80;;;;;;6277865;22;20007;-81
2021/01/12 08:10:39;;;;;;;10.33;6.47;;;6.70;98.80;;;;;;6276868;22;20007;-82
2021/01/12 08:13:06;;;;;;;8.67;5.87;;;6.70;98.70;;;;;;6278605;22;20004;-82
2021/01/12 08:15:32;;;;;;;10.07;6.17;;;6.70;98.80;;;;;;6278344;22;20049;-82
2021/01/12 08:17:57;;;;;;;13.57;6.80;;;6.80;98.80;;;;;;6278140;22;20386;-81
2021/01/12 08:20:23;;;;;;;9.07;6.00;;;6.80;98.70;;;;;;6249750;22;20027;-81
2021/01/12 08:22:55;;;;;;;11.47;6.03;;;6.80;98.70;;;;;;6278698;22;19995;-81
2021/01/12 08:25:22;;;;;;;11.83;6.07;;;6.80;98.70;;;;;;6280932;22;20031;-82
2021/01/12 08:27:52;;;;;;;11.63;6.40;;;6.80;98.60;;;;;;6281553;22;20004;-82
2021/01/12 08:30:29;;;;;;;14.33;6.60;;;6.80;98.80;;;;;;6280063;22;20018;-82
2021/01/12 08:33:00;;;;;;;11.07;6.03;;;6.80;98.70;;;;;;6281259;22;20056;-82
2021/01/12 08:35:29;;;;;;;10.77;6.37;;;6.80;98.80;;;;;;6280837;22;20010;-82
2021/01/12 08:37:59;;;;;;;10.15;6.35;;;6.80;98.90;;;;;;6280946;22;20435;-82
2021/01/12 08:40:31;;;;;;;12.70;7.13;;;6.80;99.00;;;;;;6280105;22;20173;-81
2021/01/12 08:42:59;;;;;;;12.37;6.73;;;6.80;98.90;;;;;;6281725;22;20315;-81
2021/01/12 08:45:26;;;;;;;12.97;6.77;;;6.80;98.90;;;;;;6281276;22;19995;-81
2021/01/12 08:47:51;;;;;;;10.67;6.40;;;6.80;99.00;;;;;;6254400;22;20007;-81
2021/01/12 08:50:18;;;;;;;13.47;7.23;;;6.80;99.00;;;;;;6281083;22;20468;-81
2021/01/12 08:52:51;;;;;;;12.40;7.00;;;6.80;99.10;;;;;;6254012;22;20334;-81
2021/01/12 08:55:21;;;;;;;14.77;7.27;;;6.80;99.00;;;;;;6281541;22;20047;-81
2021/01/12 08:57:54;;;;;;;13.73;7.57;;;6.80;98.90;;;;;;6281190;22;20006;-82
2021/01/12 09:00:33;;;;;;;13.17;7.50;;;6.80;98.90;;;;;;6280886;22;20000;-82
2021/01/12 09:02:59;;;;;;;15.87;8.23;;;6.80;99.00;;;;;;6282329;22;20022;-82
2021/01/12 09:05:26;;;;;;;14.90;7.90;;;6.80;98.90;;;;;;6254015;22;20008;-82
2021/01/12 09:08:09;;;;;;;12.47;7.33;;;6.80;99.00;;;;;;6254075;22;20010;-81
2021/01/12 09:10:36;;;;;;;12.10;6.90;;;6.80;99.00;;;;;;6281089;22;20022;-81
2021/01/12 09:13:02;;;;;;;13.03;7.03;;;6.80;99.00;;;;;;6281533;22;20060;-82
2021/01/12 09:15:29;;;;;;;13.43;6.43;;;6.80;98.80;;;;;;6281663;22;20008;-82
2021/01/12 09:18:07;;;;;;;13.17;6.03;;;6.80;98.70;;;;;;6281966;22;19995;-82
2021/01/12 09:20:35;;;;;;;10.30;5.80;;;6.80;98.60;;;;;;6254458;22;20000;-82
2021/01/12 09:23:10;;;;;;;9.30;5.00;;;6.80;98.50;;;;;;6280337;22;19995;-81
2021/01/12 09:25:37;;;;;;;12.13;5.07;;;6.90;98.20;;;;;;6278957;22;20077;-82
2021/01/12 09:28:11;;;;;;;8.87;4.53;;;6.90;98.00;;;;;;6278143;22;20004;-82
2021/01/12 09:30:37;;;;;;;12.10;5.30;;;6.90;97.70;;;;;;6277776;22;20018;-82
2021/01/12 09:33:04;;;;;;;10.67;5.07;;;6.90;97.80;;;;;;6249769;22;20008;-81
2021/01/12 09:35:29;;;;;;;9.20;4.83;;;6.90;97.80;;;;;;6277340;22;20339;-81
2021/01/12 09:37:59;;;;;;;9.13;4.80;;;6.80;97.80;;;;;;6276846;22;20063;-81
2021/01/12 09:40:25;;;;;;;11.63;4.77;;;6.80;97.90;;;;;;6276285;22;19996;-81
2021/01/12 09:42:50;;;;;;;14.80;5.07;;;6.80;97.80;;;;;;6276637;22;20095;-81
2021/01/12 09:45:16;;;;;;;10.90;4.40;;;6.80;97.80;;;;;;6277117;22;20053;-82
2021/01/12 09:47:42;;;;;;;10.20;3.93;;;6.80;97.70;;;;;;6277472;22;20031;-82
2021/01/12 09:50:08;;;;;;;8.40;4.70;;;6.90;97.70;;;;;;6276149;22;20014;-82
2021/01/12 09:52:34;;;;;;;8.93;4.50;;;6.80;97.90;;;;;;6276596;22;20382;-81
2021/01/12 09:55:01;;;;;;;10.63;4.70;;;6.90;97.60;;;;;;6276747;22;20180;-81
2021/01/12 09:57:26;;;;;;;10.00;4.97;;;6.80;97.60;;;;;;6276881;22;20000;-81
2021/01/12 09:59:52;;;;;;;9.23;4.80;;;6.80;97.40;;;;;;6275902;22;20029;-81
2021/01/12 10:02:17;;;;;;;9.10;5.07;;;6.80;97.50;;;;;;6276823;22;19999;-82
2021/01/12 10:04:45;;;;;;;13.53;5.30;;;6.80;97.70;;;;;;6276995;22;20007;-82
2021/01/12 10:07:10;;;;;;;11.67;4.37;;;6.80;97.70;;;;;;6277260;22;20066;-81
2021/01/12 10:09:37;;;;;;;10.33;4.93;;;6.90;97.70;;;;;;6276208;22;20419;-82
2021/01/12 10:12:04;;;;;;;8.73;4.80;;;6.80;97.30;;;;;;6249662;22;20011;-82
2021/01/12 10:14:30;;;;;;;9.47;5.03;;;6.90;97.20;;;;;;6277375;22;19999;-82
2021/01/12 10:16:55;;;;;;;9.90;5.47;;;6.80;97.10;;;;;;6249619;22;20008;-82
2021/01/12 10:19:21;;;;;;;10.03;5.50;;;6.80;97.20;;;;;;6276075;22;20381;-82
2021/01/12 10:21:50;;;;;;;11.37;5.53;;;6.90;97.20;;;;;;6276870;22;20441;-81
2021/01/12 10:24:16;;;;;;;14.68;6.07;;;6.80;97.40;;;;;;6276892;22;20337;-82
2021/01/12 10:26:43;;;;;;;10.90;5.53;;;6.80;97.50;;;;;;6277545;22;20046;-82
2021/01/12 10:29:09;;;;;;;10.33;5.00;;;6.80;97.50;;;;;;6277482;22;20327;-82
2021/01/12 10:31:34;;;;;;;8.40;4.83;;;6.80;97.60;;;;;;6278054;22;20003;-82
2021/01/12 10:34:00;;;;;;;8.27;4.87;;;6.80;97.40;;;;;;6277706;22;20031;-81
2021/01/12 10:36:26;;;;;;;8.73;3.97;;;6.80;97.30;;;;;;6277407;22;19999;-82
2021/01/12 10:38:52;;;;;;;6.80;3.60;;;6.80;97.20;;;;;;6249904;22;20004;-81
2021/01/12 10:41:17;;;;;;;6.73;3.73;;;6.80;97.00;;;;;;6249859;22;20320;-82
2021/01/12 10:43:43;;;;;;;7.47;3.97;;;6.80;96.90;;;;;;6277272;22;20069;-82
2021/01/12 10:46:09;;;;;;;4.77;2.90;;;6.80;96.60;;;;;;6276948;22;20019;-82
2021/01/12 10:48:35;;;;;;;5.23;2.23;;;6.80;95.80;;;;;;6249642;22;20003;-81
2021/01/12 10:51:00;;;;;;;5.70;2.47;;;6.80;96.00;;;;;;6249330;22;20050;-82
2021/01/12 10:53:26;;;;;;;4.63;2.10;;;6.80;95.10;;;;;;6276612;22;20086;-82
2021/01/12 10:55:51;;;;;;;5.67;2.13;;;6.80;95.40;;;;;;6276895;22;20070;-82
2021/01/12 10:58:17;;;;;;;4.03;1.73;;;6.80;95.30;;;;;;6277464;22;20372;-82
2021/01/12 11:00:44;;;;;;;2.43;1.47;;;6.70;94.90;;;;;;6276348;22;20000;-82
2021/01/12 11:03:09;;;;;;;3.00;1.40;;;6.70;94.20;;;;;;6276992;22;20056;-81
2021/01/12 11:05:35;;;;;;;2.87;1.30;;;6.80;93.80;;;;;;6277418;22;20335;-82
2021/01/12 11:08:01;;;;;;;2.17;1.33;;;6.80;93.90;;;;;;6276941;22;20023;-82
2021/01/12 11:10:28;;;;;;;4.63;1.63;;;6.70;94.00;;;;;;6276078;22;19999;-82
2021/01/12 11:12:53;;;;;;;2.90;1.30;;;6.80;93.70;;;;;;6249712;22;20007;-82
2021/01/12 11:15:19;;;;;;;2.33;1.10;;;6.80;93.50;;;;;;6276910;22;20335;-82
2021/01/12 11:17:46;;;;;;;2.80;1.00;;;6.70;93.30;;;;;;6276770;22;20003;-81
2021/01/12 11:20:13;;;;;;;7.00;1.20;;;6.70;93.00;;;;;;6276707;22;20004;-82
2021/01/12 11:22:39;;;;;;;3.53;1.20;;;6.70;93.30;;;;;;6278157;22;19999;-82
2021/01/12 11:25:06;;;;;;;3.80;1.63;;;6.60;93.10;;;;;;6278056;22;20003;-82
2021/01/12 11:27:32;;;;;;;3.63;1.27;;;6.60;93.50;;;;;;6277690;22;20087;-82
2021/01/12 11:29:58;;;;;;;3.70;1.40;;;6.50;93.70;;;;;;6286012;22;20007;-85
2021/01/12 11:32:24;;;;;;;3.10;1.60;;;6.50;93.80;;;;;;6280931;22;20025;-85
2021/01/12 11:34:50;;;;;;;3.47;1.20;;;6.50;94.10;;;;;;6281310;22;20015;-86
2021/01/12 11:37:16;;;;;;;3.80;1.40;;;6.50;93.60;;;;;;6281516;22;20372;-85
2021/01/12 11:39:42;;;;;;;3.07;1.27;;;6.40;93.70;;;;;;6300491;22;20426;-86
2021/01/12 11:42:14;;;;;;;2.63;1.13;;;6.40;93.60;;;;;;6250975;22;20027;-86
2021/01/12 11:44:41;;;;;;;3.40;1.20;;;6.40;93.30;;;;;;6250638;22;20457;-86
2021/01/12 11:47:07;;;;;;;2.30;0.97;;;6.40;92.90;;;;;;6277393;22;20375;-85
2021/01/12 11:49:33;;;;;;;5.13;1.10;;;6.40;93.00;;;;;;6276938;22;20242;-86
2021/01/12 11:52:02;;;;;;;2.27;0.73;;;6.40;92.90;;;;;;6250311;22;20466;-85
2021/01/12 11:54:28;;;;;;;3.53;0.82;;;6.40;92.60;;;;;;6250491;22;20055;-85
2021/01/12 11:56:56;;;;;;;2.23;0.60;;;6.50;92.70;;;;;;6250290;22;20004;-85
2021/01/12 11:59:26;;;;;;;2.33;0.70;;;6.40;92.50;;;;;;6249805;22;20460;-86
2021/01/12 12:01:55;;;;;;;1.80;0.80;;;6.40;92.60;;;;;;6250190;22;20000;-86
2021/01/12 12:04:22;;;;;;;;;;;6.40;92.20;;;;;;6251170;22;20003;-85
2021/01/12 12:06:54;;;;;;;1.87;0.77;;;6.40;91.90;;;;;;6250335;22;20033;-86
2021/01/12 12:09:20;;;;;;;2.67;0.60;;;6.40;91.90;;;;;;6249504;22;20450;-85
2021/01/12 12:11:47;;;;;;;1.27;0.63;;;6.40;91.70;;;;;;6250439;22;20031;-86
2021/01/12 12:14:13;;;;;;;3.77;0.60;;;6.40;91.80;;;;;;6251082;22;20007;-85
2021/01/12 12:16:43;;;;;;;2.90;0.60;;;6.40;91.70;;;;;;6250977;22;20000;-85
2021/01/12 12:19:08;;;;;;;;;;;6.30;92.40;;;;;;6277231;22;20496;-86
2021/01/12 12:22:01;;;;;;;2.10;0.80;;;6.30;92.90;;;;;;6249899;22;19931;-86
2021/01/12 12:24:30;;;;;;;5.03;0.80;;;6.20;93.80;;;;;;6277092;22;20434;-86
2021/01/12 12:27:01;;;;;;;7.03;0.83;;;6.10;93.60;;;;;;6250566;22;20058;-86
2021/01/12 12:29:27;;;;;;;4.73;1.00;;;5.90;94.10;;;;;;6249164;22;20004;-86
2021/01/12 12:31:56;;;;;;;3.47;0.93;;;5.90;94.60;;;;;;6250076;22;20426;-85
2021/01/12 12:34:27;;;;;;;7.60;1.10;;;5.90;94.40;;;;;;6250018;22;20140;-85
2021/01/12 12:37:01;;;;;;;3.03;0.98;;;5.90;94.00;;;;;;6277394;22;20004;-86
2021/01/12 12:39:27;;;;;;;4.83;0.90;;;5.80;93.60;;;;;;6276541;22;19999;-85
2021/01/12 12:41:52;;;;;;;4.30;0.60;;;5.60;93.50;;;;;;6276955;22;20030;-85
2021/01/12 12:44:19;;;;;;;5.83;0.90;;;5.60;94.00;;;;;;6249773;22;20469;-85
2021/01/12 12:46:45;;;;;;;3.10;0.87;;;5.60;94.10;;;;;;6249921;22;20011;-85
2021/01/12 12:49:11;;;;;;;3.77;1.07;;;5.50;93.20;;;;;;6276453;22;20004;-86
2021/01/12 12:51:37;;;;;;;2.50;0.70;;;5.50;92.70;;;;;;6249824;22;20014;-86
2021/01/12 12:54:03;;;;;;;2.00;0.60;;;5.50;93.20;;;;;;6249570;22;20035;-86